createdAt,value
2019-02-25T00:04:37.141Z,317.43
2019-02-25T00:09:40.783Z,89.87
2019-02-25T00:14:46.585Z,83.93
2019-02-25T00:19:51.910Z,71.50
2019-02-25T00:24:55.726Z,41.47
2019-02-25T00:29:59.435Z,155.07
2019-02-25T00:35:03.160Z,327.77
2019-02-25T00:40:10.256Z,268.87
2019-02-25T00:50:46.444Z,30.03
2019-02-25T01:01:00.784Z,20.47
2019-02-25T01:06:13.749Z,18.27
2019-02-25T01:11:22.509Z,17.47
2019-02-25T01:16:28.123Z,42.43
2019-02-25T01:21:32.053Z,45.93
2019-02-25T01:26:43.515Z,100.80
2019-02-25T01:31:52.231Z,234.83
2019-02-25T01:36:57.674Z,353.93
2019-02-25T01:42:01.852Z,325.20
2019-02-25T01:47:05.763Z,140.13
2019-02-25T01:52:09.379Z,57.50
2019-02-25T01:57:12.971Z,25.90
2019-02-25T02:02:16.621Z,18.07
2019-02-25T02:07:20.333Z,15.97
2019-02-25T02:12:24.768Z,13.83
2019-02-25T02:17:28.382Z,13.30
2019-02-25T02:22:32.041Z,12.07
2019-02-25T02:27:35.639Z,12.70
2019-02-25T02:32:39.339Z,11.40
2019-02-25T02:37:42.955Z,324.83
2019-02-25T02:42:46.677Z,121.17
2019-02-25T02:47:50.482Z,181.97
2019-02-25T02:52:54.151Z,471.45
2019-02-25T02:57:57.818Z,337.13
2019-02-25T03:03:01.842Z,217.17
2019-02-25T03:08:05.865Z,81.47
2019-02-25T03:13:10.104Z,20.20
2019-02-25T03:18:13.727Z,13.63
2019-02-25T03:23:17.430Z,33.90
2019-02-25T03:28:21.026Z,15.20
2019-02-25T03:33:24.580Z,12.20
2019-02-25T03:38:28.287Z,12.00
2019-02-25T03:43:31.801Z,10.63
2019-02-25T03:48:35.415Z,10.95
2019-02-25T03:53:39.008Z,10.20
2019-02-25T03:58:42.636Z,9.93
2019-02-25T04:03:46.293Z,9.80
2019-02-25T04:08:49.774Z,9.53
2019-02-25T04:13:53.501Z,10.00
2019-02-25T04:24:00.526Z,16.83
2019-02-25T04:29:04.335Z,12.50
2019-02-25T04:34:07.849Z,10.58
2019-02-25T04:39:11.677Z,9.70
2019-02-25T04:44:15.383Z,9.90
2019-02-25T04:49:18.984Z,9.40
2019-02-25T04:54:22.625Z,8.70
2019-02-25T04:59:26.331Z,8.87
2019-02-25T05:04:29.851Z,8.70
2019-02-25T05:09:33.667Z,7.92
2019-02-25T05:14:37.288Z,7.23
2019-02-25T05:19:40.802Z,7.17
2019-02-25T05:24:44.411Z,7.20
2019-02-25T05:29:47.856Z,7.20
2019-02-25T05:34:51.542Z,6.77
2019-02-25T05:44:58.679Z,28.93
2019-02-25T05:50:02.286Z,11.77
2019-02-25T05:55:05.795Z,9.40
2019-02-25T06:00:09.528Z,7.43
2019-02-25T06:10:16.749Z,6.97
2019-02-25T06:15:20.360Z,6.20
2019-02-25T06:53:17.426Z,7.10
2019-02-25T06:58:22.996Z,6.30
2019-02-25T07:03:26.504Z,6.53
2019-02-25T07:13:39.586Z,6.50
2019-02-25T07:18:42.776Z,6.83
2019-02-25T07:23:59.808Z,6.73
2019-02-25T07:29:21.447Z,7.33
2019-02-25T07:39:52.439Z,8.43
2019-02-25T07:45:06.491Z,8.83
2019-02-25T07:55:19.558Z,8.33
2019-02-25T08:00:37.325Z,8.13
2019-02-25T08:05:42.457Z,8.93
2019-02-25T08:21:03.759Z,9.97
2019-02-25T08:26:10.420Z,69.67
2019-02-25T08:31:25.088Z,411.33
2019-02-25T08:36:42.655Z,292.85
2019-02-25T08:41:47.789Z,547.97
2019-02-25T08:46:53.113Z,354.00
2019-02-25T08:51:56.787Z,156.53
2019-02-25T08:57:00.609Z,72.20
2019-02-25T09:02:04.325Z,29.83
2019-02-25T09:07:07.870Z,22.13
2019-02-25T09:12:11.752Z,18.35
2019-02-25T09:17:16.102Z,16.10
2019-02-25T09:27:23.523Z,14.33
2019-02-25T09:37:30.679Z,14.23
2019-02-25T09:42:34.278Z,14.07
2019-02-25T09:47:37.794Z,14.20
2019-02-25T09:52:41.496Z,13.93
2019-02-25T09:57:45.355Z,12.53
2019-02-25T10:02:48.836Z,13.08
2019-02-25T10:07:52.651Z,13.17
2019-02-25T10:12:57.084Z,11.73
2019-02-25T10:18:00.527Z,12.03
2019-02-25T10:23:04.152Z,12.07
2019-02-25T10:28:07.741Z,11.43
2019-02-25T10:33:11.343Z,11.17
2019-02-25T10:38:14.859Z,11.83
2019-02-25T10:43:19.031Z,11.60
2019-02-25T10:48:23.642Z,11.60
2019-02-25T10:58:33.533Z,10.37
2019-02-25T11:03:37.002Z,10.57
2019-02-25T11:08:43.591Z,9.70
2019-02-25T11:18:52.741Z,10.93
2019-02-25T11:23:56.306Z,9.53
2019-02-25T11:28:59.816Z,9.27
2019-02-25T11:34:05.583Z,9.20
2019-02-25T11:44:13.062Z,9.13
2019-02-25T11:49:16.607Z,10.40
2019-02-25T11:54:20.350Z,9.13
2019-02-25T11:59:23.868Z,9.83
2019-02-25T12:04:28.507Z,9.03
2019-02-25T12:09:32.336Z,8.30
2019-02-25T12:14:35.838Z,8.68
2019-02-25T12:19:39.661Z,9.03
2019-02-25T12:24:43.285Z,8.67
2019-02-25T12:29:46.791Z,8.70
2019-02-25T12:34:50.518Z,8.70
2019-02-25T12:50:01.354Z,8.90
2019-02-25T12:55:23.807Z,8.68
2019-02-25T13:00:28.061Z,7.67
2019-02-25T13:05:31.678Z,8.00
2019-02-25T13:10:35.282Z,7.17
2019-02-25T13:15:38.784Z,7.23
2019-02-25T13:20:42.500Z,6.97
2019-02-25T13:30:49.536Z,7.30
2019-02-25T13:40:56.664Z,7.13
2019-02-25T13:46:00.294Z,6.20
2019-02-25T13:51:03.736Z,6.20
2019-02-25T13:56:07.401Z,6.47
2019-02-25T14:01:11.322Z,6.57
2019-02-25T14:06:14.781Z,6.30
2019-02-25T14:11:18.454Z,6.53
2019-02-25T14:21:25.668Z,6.37
2019-02-25T14:26:29.299Z,5.30
2019-02-25T14:31:32.811Z,5.53
2019-02-25T14:36:36.435Z,6.23
2019-02-25T14:41:40.027Z,6.07
2019-02-25T14:46:43.659Z,6.10
2019-02-25T14:51:47.284Z,5.73
2019-02-25T14:56:52.742Z,5.83
2019-02-25T15:01:57.001Z,6.30
2019-02-25T15:07:06.914Z,6.77
2019-02-25T15:12:11.720Z,6.93
2019-02-25T15:17:15.705Z,7.23
2019-02-25T15:22:19.423Z,6.87
2019-02-25T15:27:23.005Z,6.60
2019-02-25T15:32:26.644Z,6.47
2019-02-25T15:37:30.277Z,5.70
2019-02-25T15:42:38.364Z,33.37
2019-02-25T15:47:39.851Z,126.13
2019-02-25T15:52:44.142Z,183.13
2019-02-25T15:57:47.814Z,73.10
2019-02-25T16:02:51.918Z,92.92
2019-02-25T16:07:58.019Z,98.00
2019-02-25T16:13:04.878Z,51.87
2019-02-25T16:18:08.589Z,144.67
2019-02-25T16:23:13.047Z,121.93
2019-02-25T16:28:17.565Z,116.13
2019-02-25T16:33:24.088Z,132.95
2019-02-25T16:38:29.467Z,142.13
2019-02-25T16:43:33.085Z,214.48
2019-02-25T16:48:36.782Z,67.17
2019-02-25T16:53:41.419Z,84.03
2019-02-25T16:58:45.595Z,34.98
2019-02-25T17:03:50.776Z,63.53
2019-02-25T17:08:55.681Z,79.33
2019-02-25T17:19:05.072Z,85.30
2019-02-25T17:29:13.149Z,364.52
2019-02-25T17:34:18.711Z,256.80
2019-02-25T17:39:22.123Z,122.20
2019-02-25T17:44:27.777Z,144.30
2019-02-25T17:49:31.874Z,269.83
2019-02-25T17:54:37.748Z,175.03
2019-02-25T17:59:41.771Z,195.90
2019-02-25T18:04:47.031Z,350.90
2019-02-25T18:09:51.602Z,210.90
2019-02-25T18:14:55.418Z,134.27
2019-02-25T18:19:59.373Z,96.83
2019-02-25T18:30:08.687Z,163.40
2019-02-25T18:35:14.354Z,111.30
2019-02-25T18:40:20.522Z,213.03
2019-02-25T18:45:25.567Z,254.43
2019-02-25T18:50:30.878Z,157.60
2019-02-25T18:55:50.194Z,57.50
2019-02-25T19:00:57.074Z,33.43
2019-02-25T19:06:02.501Z,136.23
2019-02-25T19:11:06.428Z,40.08
2019-02-25T19:16:10.376Z,567.70
2019-02-25T19:21:14.274Z,74.00
2019-02-25T19:26:19.548Z,66.50
2019-02-25T19:36:29.654Z,108.00
2019-02-25T19:41:34.856Z,132.67
2019-02-25T19:46:38.820Z,59.00
2019-02-25T19:51:43.840Z,28.97
2019-02-25T20:01:52.620Z,21.20
2019-02-25T20:06:58.033Z,19.70
2019-02-25T20:12:01.966Z,16.20
2019-02-25T20:17:05.615Z,15.53
2019-02-25T20:22:09.963Z,15.87
2019-02-25T20:27:14.389Z,14.83
2019-02-25T20:32:18.612Z,15.23
2019-02-25T20:37:23.370Z,14.33
2019-02-25T20:47:33.350Z,15.10
2019-02-25T20:52:38.814Z,14.57
2019-02-25T20:57:42.591Z,14.80
2019-02-25T21:02:46.354Z,14.35
2019-02-25T21:07:55.464Z,14.30
2019-02-25T21:13:00.055Z,14.53
2019-02-25T21:18:07.517Z,14.47
2019-02-25T21:23:12.096Z,14.93
2019-02-25T21:28:15.495Z,14.85
2019-02-25T21:38:25.677Z,13.80
2019-02-25T21:43:29.253Z,13.70
2019-02-25T21:48:34.705Z,13.33
2019-02-25T21:58:46.726Z,14.15
2019-02-25T22:03:52.613Z,12.50
2019-02-25T22:08:58.470Z,13.05
2019-02-25T22:14:02.040Z,13.07
2019-02-25T22:19:05.670Z,13.80
2019-02-25T22:24:09.715Z,12.60
2019-02-25T22:29:14.004Z,13.30
2019-02-25T22:34:18.649Z,14.17
2019-02-25T22:39:25.025Z,13.83
2019-02-25T22:44:30.763Z,13.50
2019-02-25T22:49:34.212Z,13.25
2019-02-25T22:54:40.993Z,12.80
2019-02-25T23:04:47.308Z,13.13
2019-02-25T23:09:52.679Z,13.72
2019-02-25T23:14:58.907Z,12.53
2019-02-25T23:20:05.137Z,12.13
2019-02-25T23:25:08.545Z,12.97
2019-02-25T23:30:12.639Z,12.68
2019-02-25T23:35:18.270Z,12.78
2019-02-25T23:40:21.645Z,12.33
2019-02-25T23:45:25.292Z,12.57
2019-02-25T23:50:31.742Z,12.53
2019-02-25T23:55:35.568Z,12.00
